createdAt,value
2022-10-23T00:02:41.128Z,89.40
2022-10-23T00:07:40.153Z,88.96
2022-10-23T00:12:39.622Z,88.80
2022-10-23T00:17:39.391Z,88.36
2022-10-23T00:22:38.964Z,88.64
2022-10-23T00:27:37.839Z,88.31
2022-10-23T00:32:37.133Z,88.92
2022-10-23T00:37:35.934Z,87.91
2022-10-23T00:42:34.850Z,88.88
2022-10-23T00:47:33.559Z,88.30
2022-10-23T00:52:33.596Z,88.25
2022-10-23T00:57:32.360Z,88.57
2022-10-23T01:02:31.195Z,88.58
2022-10-23T01:07:42.476Z,88.36
2022-10-23T01:12:47.636Z,88.75
2022-10-23T01:17:56.729Z,88.73
2022-10-23T01:23:22.442Z,88.76
2022-10-23T01:28:30.482Z,89.03
2022-10-23T01:33:37.868Z,89.45
2022-10-23T01:38:42.512Z,89.14
2022-10-23T01:43:51.895Z,89.00
2022-10-23T01:48:54.999Z,88.81
2022-10-23T01:53:58.355Z,88.71
2022-10-23T01:59:01.147Z,88.82
2022-10-23T02:04:08.774Z,89.20
2022-10-23T02:09:07.749Z,88.71
2022-10-23T02:14:17.087Z,88.89
2022-10-23T02:19:29.028Z,88.30
2022-10-23T02:25:06.441Z,89.83
2022-10-23T02:35:40.665Z,88.71
2022-10-23T02:40:52.356Z,89.15
2022-10-23T02:46:23.444Z,88.72
2022-10-23T02:51:30.183Z,90.00
2022-10-23T02:56:49.598Z,89.06
2022-10-23T03:02:00.733Z,89.28
2022-10-23T03:07:00.009Z,90.22
2022-10-23T03:11:58.678Z,89.64
2022-10-23T03:16:57.375Z,89.22
2022-10-23T03:21:57.485Z,89.28
2022-10-23T03:26:56.210Z,89.60
2022-10-23T03:32:02.084Z,89.75
2022-10-23T03:37:01.092Z,89.44
2022-10-23T03:41:59.888Z,89.67
2022-10-23T03:47:00.338Z,90.68
2022-10-23T03:51:59.512Z,89.67
2022-10-23T03:56:59.099Z,89.36
2022-10-23T04:01:58.484Z,88.86
2022-10-23T04:06:57.272Z,89.53
2022-10-23T04:11:56.424Z,90.08
2022-10-23T04:16:59.010Z,89.90
2022-10-23T04:21:59.517Z,89.85
2022-10-23T04:26:58.177Z,89.66
2022-10-23T04:31:59.558Z,89.40
2022-10-23T04:36:58.286Z,89.27
2022-10-23T04:41:56.926Z,89.50
2022-10-23T04:46:57.582Z,88.95
2022-10-23T04:51:56.560Z,88.90
2022-10-23T04:57:14.112Z,88.68
2022-10-23T05:02:27.834Z,88.48
2022-10-23T05:07:27.106Z,88.79
2022-10-23T05:12:34.691Z,89.76
2022-10-23T05:17:36.697Z,89.89
2022-10-23T05:22:39.362Z,89.15
2022-10-23T05:27:42.214Z,89.38
2022-10-23T05:32:44.290Z,89.00
2022-10-23T05:37:47.079Z,89.29
2022-10-23T05:42:51.383Z,88.58
2022-10-23T05:47:54.982Z,88.81
2022-10-23T05:53:20.267Z,89.49
2022-10-23T05:58:43.702Z,89.55
2022-10-23T06:03:59.921Z,88.85
2022-10-23T06:09:15.669Z,88.72
2022-10-23T06:14:14.526Z,88.52
2022-10-23T06:19:13.883Z,88.94
2022-10-23T06:24:14.523Z,88.27
2022-10-23T06:29:27.574Z,88.58
2022-10-23T06:34:27.012Z,87.86
2022-10-23T06:39:29.750Z,92.12
2022-10-23T06:44:40.133Z,83.87
2022-10-23T06:49:42.933Z,83.13
2022-10-23T06:54:41.685Z,81.14
2022-10-23T06:59:51.150Z,82.50
2022-10-23T07:04:50.651Z,83.49
2022-10-23T07:09:51.431Z,84.97
2022-10-23T07:14:56.931Z,85.41
2022-10-23T07:19:56.106Z,85.21
2022-10-23T07:24:55.732Z,85.12
2022-10-23T07:30:00.446Z,84.95
2022-10-23T07:35:03.497Z,84.08
2022-10-23T07:40:06.979Z,84.28
2022-10-23T07:45:12.935Z,84.05
2022-10-23T07:50:15.809Z,84.44
2022-10-23T07:55:14.760Z,83.46
2022-10-23T08:00:21.028Z,83.58
2022-10-23T08:05:28.454Z,83.88
2022-10-23T08:10:32.519Z,83.59
2022-10-23T08:15:31.679Z,82.82
2022-10-23T08:20:42.129Z,82.46
2022-10-23T08:25:41.197Z,82.10
2022-10-23T08:30:41.296Z,81.07
2022-10-23T08:35:40.551Z,82.08
2022-10-23T08:40:45.061Z,81.20
2022-10-23T08:46:09.565Z,81.20
2022-10-23T08:51:41.729Z,80.34
2022-10-23T08:56:54.815Z,79.80
2022-10-23T09:02:01.743Z,80.30
2022-10-23T09:07:10.904Z,78.92
2022-10-23T09:12:15.285Z,77.43
2022-10-23T09:17:20.143Z,77.88
2022-10-23T09:22:18.912Z,77.63
2022-10-23T09:27:20.632Z,76.61
2022-10-23T09:32:20.759Z,75.40
2022-10-23T09:37:38.113Z,74.67
2022-10-23T09:43:01.718Z,74.67
2022-10-23T09:48:14.768Z,73.74
2022-10-23T09:53:18.476Z,74.18
2022-10-23T09:58:33.408Z,73.50
2022-10-23T10:03:32.760Z,73.56
2022-10-23T10:08:53.122Z,72.58
2022-10-23T10:14:00.815Z,73.58
2022-10-23T10:19:11.237Z,73.50
2022-10-23T10:24:19.981Z,72.74
2022-10-23T10:29:57.545Z,74.19
2022-10-23T10:35:14.662Z,73.51
2022-10-23T10:40:30.790Z,73.25
2022-10-23T10:45:39.332Z,73.03
2022-10-23T10:51:10.527Z,72.00
2022-10-23T10:56:20.501Z,71.53
2022-10-23T11:01:28.513Z,71.03
2022-10-23T11:06:31.867Z,71.24
2022-10-23T11:11:40.911Z,70.84
2022-10-23T11:16:39.794Z,72.23
2022-10-23T11:21:47.101Z,70.33
2022-10-23T11:27:37.525Z,71.39
2022-10-23T11:33:08.571Z,71.00
2022-10-23T11:38:13.076Z,72.10
2022-10-23T11:43:11.897Z,72.36
2022-10-23T11:48:24.088Z,71.90
2022-10-23T11:53:43.298Z,72.52
2022-10-23T11:58:45.793Z,73.66
2022-10-23T12:04:03.255Z,75.03
2022-10-23T12:09:06.855Z,74.32
2022-10-23T12:14:05.622Z,75.21
2022-10-23T12:19:21.185Z,75.32
2022-10-23T12:24:43.336Z,75.18
2022-10-23T12:29:56.598Z,74.91
2022-10-23T12:35:17.067Z,75.64
2022-10-23T12:40:15.895Z,75.69
2022-10-23T12:45:21.460Z,74.92
2022-10-23T12:50:29.013Z,75.55
2022-10-23T12:55:35.027Z,74.58
2022-10-23T13:00:34.920Z,75.44
2022-10-23T13:05:33.631Z,75.15
2022-10-23T13:10:33.318Z,75.70
2022-10-23T13:15:42.559Z,75.86
2022-10-23T13:20:51.564Z,75.67
2022-10-23T13:26:33.089Z,74.93
2022-10-23T13:31:35.496Z,75.00
2022-10-23T13:36:37.301Z,74.20
2022-10-23T13:41:43.048Z,74.48
2022-10-23T13:46:42.845Z,74.41
2022-10-23T13:51:54.639Z,74.68
2022-10-23T13:56:54.904Z,74.88
2022-10-23T14:01:53.695Z,74.21
2022-10-23T14:06:58.393Z,74.99
2022-10-23T14:11:57.088Z,75.86
2022-10-23T14:16:55.976Z,75.62
2022-10-23T14:21:54.665Z,74.87
2022-10-23T14:26:53.279Z,75.72
2022-10-23T14:31:52.260Z,75.61
2022-10-23T14:37:03.890Z,75.49
2022-10-23T14:42:06.651Z,75.50
2022-10-23T14:47:05.951Z,76.11
2022-10-23T14:52:04.877Z,75.55
2022-10-23T14:57:04.287Z,76.63
2022-10-23T15:02:03.060Z,77.35
2022-10-23T15:07:01.713Z,77.15
2022-10-23T15:12:00.651Z,77.80
2022-10-23T15:16:59.435Z,77.67
2022-10-23T15:21:58.183Z,78.11
2022-10-23T15:26:57.212Z,77.95
2022-10-23T15:31:58.739Z,78.02
2022-10-23T15:36:57.758Z,78.65
2022-10-23T15:41:57.158Z,78.74
2022-10-23T15:46:59.320Z,79.25
2022-10-23T15:51:58.519Z,79.54
2022-10-23T15:56:57.804Z,79.53
2022-10-23T16:01:57.517Z,79.81
2022-10-23T16:06:56.882Z,79.51
2022-10-23T16:11:55.631Z,79.67
2022-10-23T16:16:54.263Z,79.52
2022-10-23T16:21:53.034Z,79.79
2022-10-23T16:26:53.427Z,80.11
2022-10-23T16:31:56.956Z,79.91
2022-10-23T16:36:55.734Z,79.82
2022-10-23T16:42:27.147Z,80.07
2022-10-23T16:47:42.006Z,80.28
2022-10-23T16:52:40.754Z,79.79
2022-10-23T16:57:39.600Z,79.59
2022-10-23T17:02:38.443Z,79.61
2022-10-23T17:07:37.285Z,80.49
2022-10-23T17:12:36.145Z,80.29
2022-10-23T17:17:34.820Z,80.52
2022-10-23T17:22:35.562Z,79.14
2022-10-23T17:27:34.212Z,80.10
2022-10-23T17:32:35.817Z,80.65
2022-10-23T17:37:34.625Z,81.10
2022-10-23T17:42:33.407Z,81.21
2022-10-23T17:47:32.183Z,81.35
2022-10-23T17:52:30.971Z,81.31
2022-10-23T17:57:29.709Z,82.21
2022-10-23T18:02:28.715Z,82.56
2022-10-23T18:07:27.532Z,82.92
2022-10-23T18:12:26.222Z,82.54
2022-10-23T18:17:24.961Z,83.19
2022-10-23T18:22:23.668Z,83.31
2022-10-23T18:27:22.323Z,83.11
2022-10-23T18:32:21.004Z,83.52
2022-10-23T18:37:19.792Z,83.64
2022-10-23T18:42:18.431Z,83.41
2022-10-23T18:47:17.327Z,83.50
2022-10-23T18:52:16.004Z,83.04
2022-10-23T18:57:14.754Z,82.75
2022-10-23T19:02:13.570Z,83.52
2022-10-23T19:07:12.420Z,83.73
2022-10-23T19:12:11.545Z,83.54
2022-10-23T19:17:21.094Z,83.98
2022-10-23T19:22:19.808Z,84.30
2022-10-23T19:27:19.824Z,84.06
2022-10-23T19:32:18.698Z,83.67
2022-10-23T19:37:17.387Z,83.39
2022-10-23T19:42:16.106Z,83.91
2022-10-23T19:47:15.242Z,84.11
2022-10-23T19:52:14.554Z,83.66
2022-10-23T19:57:13.269Z,83.92
2022-10-23T20:02:12.124Z,84.11
2022-10-23T20:07:11.265Z,82.87
2022-10-23T20:12:10.132Z,82.91
2022-10-23T20:17:09.182Z,82.10
2022-10-23T20:22:08.560Z,81.97
2022-10-23T20:27:09.634Z,80.83
2022-10-23T20:32:08.839Z,80.76
2022-10-23T20:37:08.212Z,80.17
2022-10-23T20:42:07.621Z,80.55
2022-10-23T20:47:06.385Z,80.66
2022-10-23T20:52:05.433Z,80.77
2022-10-23T20:57:04.489Z,80.54
2022-10-23T21:02:03.577Z,79.93
2022-10-23T21:07:09.914Z,80.03
2022-10-23T21:12:10.150Z,80.15
2022-10-23T21:17:11.093Z,79.54
2022-10-23T21:22:10.454Z,79.26
2022-10-23T21:27:09.268Z,79.15
2022-10-23T21:32:07.970Z,80.31
2022-10-23T21:37:13.027Z,80.65
2022-10-23T21:42:13.990Z,82.52
2022-10-23T21:47:12.735Z,82.95
2022-10-23T21:52:13.175Z,83.13
2022-10-23T21:57:14.727Z,85.43
2022-10-23T22:02:13.567Z,84.27
2022-10-23T22:07:14.948Z,85.28
2022-10-23T22:12:13.886Z,85.27
2022-10-23T22:17:12.776Z,85.75
2022-10-23T22:22:11.553Z,87.02
2022-10-23T22:27:10.238Z,86.98
2022-10-23T22:32:09.001Z,87.35
2022-10-23T22:37:09.330Z,87.17
2022-10-23T22:42:08.127Z,86.83
2022-10-23T22:47:07.162Z,86.34
2022-10-23T22:52:05.921Z,87.02
2022-10-23T22:57:04.571Z,87.66
2022-10-23T23:02:03.572Z,87.50
2022-10-23T23:07:02.179Z,87.96
2022-10-23T23:12:00.922Z,87.99
2022-10-23T23:16:59.601Z,87.46
2022-10-23T23:21:59.525Z,87.55
2022-10-23T23:26:58.226Z,87.33
2022-10-23T23:31:57.104Z,87.69
2022-10-23T23:36:55.776Z,87.57
2022-10-23T23:41:54.489Z,87.88
2022-10-23T23:46:53.180Z,88.16
2022-10-23T23:51:52.410Z,88.12
2022-10-23T23:56:51.091Z,88.12
